sensor_id;sensor_type;location;lat;lon;timestamp;P1;durP1;ratioP1;P2;durP2;ratioP2
80381;SDS011;69692;55.820;37.490;2023-05-10T00:00:00;13.57;;;7.40;;
80381;SDS011;69692;55.820;37.490;2023-05-10T00:02:26;14.63;;;6.50;;
80381;SDS011;69692;55.820;37.490;2023-05-10T00:04:52;8.68;;;5.57;;
80381;SDS011;69692;55.820;37.490;2023-05-10T00:07:17;9.55;;;5.07;;
80381;SDS011;69692;55.820;37.490;2023-05-10T00:09:43;10.82;;;6.65;;
80381;SDS011;69692;55.820;37.490;2023-05-10T00:12:09;8.30;;;5.28;;
80381;SDS011;69692;55.820;37.490;2023-05-10T00:14:35;10.27;;;6.72;;
80381;SDS011;69692;55.820;37.490;2023-05-10T00:17:01;10.88;;;6.20;;
80381;SDS011;69692;55.820;37.490;2023-05-10T00:19:26;12.30;;;5.20;;
80381;SDS011;69692;55.820;37.490;2023-05-10T00:21:52;13.98;;;7.00;;
80381;SDS011;69692;55.820;37.490;2023-05-10T00:24:18;11.10;;;6.65;;
80381;SDS011;69692;55.820;37.490;2023-05-10T00:26:44;10.43;;;6.88;;
80381;SDS011;69692;55.820;37.490;2023-05-10T00:29:10;14.02;;;6.80;;
80381;SDS011;69692;55.820;37.490;2023-05-10T00:31:36;13.30;;;6.47;;
80381;SDS011;69692;55.820;37.490;2023-05-10T00:34:01;12.43;;;5.90;;
80381;SDS011;69692;55.820;37.490;2023-05-10T00:36:27;9.75;;;5.38;;
80381;SDS011;69692;55.820;37.490;2023-05-10T00:38:53;7.57;;;5.35;;
80381;SDS011;69692;55.820;37.490;2023-05-10T00:41:18;8.95;;;6.43;;
80381;SDS011;69692;55.820;37.490;2023-05-10T00:43:45;16.95;;;6.90;;
80381;SDS011;69692;55.820;37.490;2023-05-10T00:46:11;11.50;;;6.22;;
80381;SDS011;69692;55.820;37.490;2023-05-10T00:48:37;16.00;;;6.80;;
80381;SDS011;69692;55.820;37.490;2023-05-10T00:51:03;8.88;;;5.90;;
80381;SDS011;69692;55.820;37.490;2023-05-10T00:53:30;10.20;;;6.53;;
80381;SDS011;69692;55.820;37.490;2023-05-10T00:55:57;9.57;;;5.78;;
80381;SDS011;69692;55.820;37.490;2023-05-10T00:58:24;12.13;;;6.22;;
80381;SDS011;69692;55.820;37.490;2023-05-10T01:00:54;11.73;;;5.70;;
80381;SDS011;69692;55.820;37.490;2023-05-10T01:03:21;9.95;;;6.18;;
80381;SDS011;69692;55.820;37.490;2023-05-10T01:05:47;10.85;;;5.35;;
80381;SDS011;69692;55.820;37.490;2023-05-10T01:08:12;13.32;;;6.90;;
80381;SDS011;69692;55.820;37.490;2023-05-10T01:10:38;8.32;;;5.32;;
80381;SDS011;69692;55.820;37.490;2023-05-10T01:13:04;12.43;;;5.90;;
80381;SDS011;69692;55.820;37.490;2023-05-10T01:15:30;13.07;;;5.40;;
80381;SDS011;69692;55.820;37.490;2023-05-10T01:17:56;15.50;;;5.75;;
80381;SDS011;69692;55.820;37.490;2023-05-10T01:20:23;14.40;;;6.80;;
80381;SDS011;69692;55.820;37.490;2023-05-10T01:23:04;10.20;;;7.43;;
80381;SDS011;69692;55.820;37.490;2023-05-10T01:34:56;9.27;;;5.10;;
80381;SDS011;69692;55.820;37.490;2023-05-10T01:43:35;10.13;;;5.97;;
80381;SDS011;69692;55.820;37.490;2023-05-10T01:46:09;10.60;;;5.82;;
80381;SDS011;69692;55.820;37.490;2023-05-10T01:48:40;12.43;;;5.90;;
80381;SDS011;69692;55.820;37.490;2023-05-10T01:51:13;9.18;;;6.78;;
80381;SDS011;69692;55.820;37.490;2023-05-10T01:53:42;10.40;;;5.00;;
80381;SDS011;69692;55.820;37.490;2023-05-10T01:56:10;7.93;;;4.88;;
80381;SDS011;69692;55.820;37.490;2023-05-10T01:58:38;12.98;;;6.05;;
80381;SDS011;69692;55.820;37.490;2023-05-10T02:01:07;11.02;;;4.97;;
80381;SDS011;69692;55.820;37.490;2023-05-10T02:03:35;12.18;;;5.80;;
80381;SDS011;69692;55.820;37.490;2023-05-10T02:06:02;9.23;;;6.10;;
80381;SDS011;69692;55.820;37.490;2023-05-10T02:08:30;11.85;;;5.10;;
80381;SDS011;69692;55.820;37.490;2023-05-10T02:10:57;13.80;;;7.28;;
80381;SDS011;69692;55.820;37.490;2023-05-10T02:13:25;10.13;;;6.25;;
80381;SDS011;69692;55.820;37.490;2023-05-10T02:15:52;10.15;;;5.93;;
80381;SDS011;69692;55.820;37.490;2023-05-10T02:18:19;12.65;;;6.40;;
80381;SDS011;69692;55.820;37.490;2023-05-10T02:20:47;8.75;;;5.55;;
80381;SDS011;69692;55.820;37.490;2023-05-10T02:23:14;11.63;;;6.65;;
80381;SDS011;69692;55.820;37.490;2023-05-10T02:25:43;9.80;;;5.45;;
80381;SDS011;69692;55.820;37.490;2023-05-10T02:28:10;10.77;;;6.28;;
80381;SDS011;69692;55.820;37.490;2023-05-10T02:30:37;13.23;;;5.88;;
80381;SDS011;69692;55.820;37.490;2023-05-10T02:33:04;13.82;;;6.95;;
80381;SDS011;69692;55.820;37.490;2023-05-10T02:35:31;12.18;;;6.57;;
80381;SDS011;69692;55.820;37.490;2023-05-10T02:37:58;11.95;;;6.85;;
80381;SDS011;69692;55.820;37.490;2023-05-10T02:40:25;12.75;;;6.72;;
80381;SDS011;69692;55.820;37.490;2023-05-10T02:42:54;11.23;;;6.10;;
80381;SDS011;69692;55.820;37.490;2023-05-10T02:45:23;15.98;;;6.75;;
80381;SDS011;69692;55.820;37.490;2023-05-10T02:47:53;10.90;;;6.82;;
80381;SDS011;69692;55.820;37.490;2023-05-10T02:50:19;13.10;;;6.07;;
80381;SDS011;69692;55.820;37.490;2023-05-10T02:52:47;10.88;;;6.18;;
80381;SDS011;69692;55.820;37.490;2023-05-10T02:55:19;9.43;;;6.55;;
80381;SDS011;69692;55.820;37.490;2023-05-10T02:57:55;11.63;;;6.75;;
80381;SDS011;69692;55.820;37.490;2023-05-10T03:00:24;13.77;;;6.82;;
80381;SDS011;69692;55.820;37.490;2023-05-10T03:02:50;14.40;;;7.10;;
80381;SDS011;69692;55.820;37.490;2023-05-10T03:05:15;11.30;;;6.28;;
80381;SDS011;69692;55.820;37.490;2023-05-10T03:07:41;7.70;;;5.35;;
80381;SDS011;69692;55.820;37.490;2023-05-10T03:10:07;12.50;;;6.22;;
80381;SDS011;69692;55.820;37.490;2023-05-10T03:15:14;9.93;;;6.53;;
80381;SDS011;69692;55.820;37.490;2023-05-10T03:17:50;9.93;;;6.63;;
80381;SDS011;69692;55.820;37.490;2023-05-10T03:20:41;9.70;;;6.22;;
80381;SDS011;69692;55.820;37.490;2023-05-10T03:25:39;12.32;;;6.18;;
80381;SDS011;69692;55.820;37.490;2023-05-10T03:28:06;13.18;;;7.28;;
80381;SDS011;69692;55.820;37.490;2023-05-10T03:30:35;12.93;;;6.75;;
80381;SDS011;69692;55.820;37.490;2023-05-10T03:33:05;13.60;;;6.72;;
80381;SDS011;69692;55.820;37.490;2023-05-10T03:35:38;13.85;;;6.40;;
80381;SDS011;69692;55.820;37.490;2023-05-10T03:38:05;11.55;;;5.85;;
80381;SDS011;69692;55.820;37.490;2023-05-10T03:40:31;17.35;;;7.25;;
80381;SDS011;69692;55.820;37.490;2023-05-10T03:42:58;9.10;;;5.72;;
80381;SDS011;69692;55.820;37.490;2023-05-10T03:45:24;12.30;;;7.93;;
80381;SDS011;69692;55.820;37.490;2023-05-10T03:47:50;11.07;;;6.05;;
80381;SDS011;69692;55.820;37.490;2023-05-10T03:50:16;10.88;;;7.03;;
80381;SDS011;69692;55.820;37.490;2023-05-10T03:52:42;10.50;;;6.38;;
80381;SDS011;69692;55.820;37.490;2023-05-10T03:55:08;10.10;;;6.05;;
80381;SDS011;69692;55.820;37.490;2023-05-10T03:57:34;9.73;;;5.47;;
80381;SDS011;69692;55.820;37.490;2023-05-10T04:00:00;16.17;;;7.07;;
80381;SDS011;69692;55.820;37.490;2023-05-10T04:02:29;8.95;;;5.60;;
80381;SDS011;69692;55.820;37.490;2023-05-10T04:04:55;14.30;;;7.90;;
80381;SDS011;69692;55.820;37.490;2023-05-10T04:07:21;9.82;;;5.47;;
80381;SDS011;69692;55.820;37.490;2023-05-10T04:09:47;15.20;;;6.35;;
80381;SDS011;69692;55.820;37.490;2023-05-10T04:12:13;11.13;;;6.95;;
80381;SDS011;69692;55.820;37.490;2023-05-10T04:14:39;14.63;;;7.43;;
80381;SDS011;69692;55.820;37.490;2023-05-10T04:17:04;14.40;;;6.22;;
80381;SDS011;69692;55.820;37.490;2023-05-10T04:19:31;11.27;;;6.63;;
80381;SDS011;69692;55.820;37.490;2023-05-10T04:21:57;13.40;;;6.85;;
80381;SDS011;69692;55.820;37.490;2023-05-10T04:24:23;10.85;;;6.75;;
80381;SDS011;69692;55.820;37.490;2023-05-10T04:26:49;13.27;;;6.32;;
80381;SDS011;69692;55.820;37.490;2023-05-10T04:29:15;13.05;;;6.97;;
80381;SDS011;69692;55.820;37.490;2023-05-10T04:31:40;13.63;;;7.20;;
80381;SDS011;69692;55.820;37.490;2023-05-10T04:34:06;11.00;;;7.18;;
80381;SDS011;69692;55.820;37.490;2023-05-10T04:36:32;15.38;;;6.30;;
80381;SDS011;69692;55.820;37.490;2023-05-10T04:39:00;14.90;;;8.20;;
80381;SDS011;69692;55.820;37.490;2023-05-10T04:41:26;12.90;;;7.82;;
80381;SDS011;69692;55.820;37.490;2023-05-10T04:43:51;12.55;;;6.57;;
80381;SDS011;69692;55.820;37.490;2023-05-10T04:46:17;11.70;;;6.55;;
80381;SDS011;69692;55.820;37.490;2023-05-10T04:48:43;10.77;;;6.38;;
80381;SDS011;69692;55.820;37.490;2023-05-10T04:51:09;12.13;;;6.25;;
80381;SDS011;69692;55.820;37.490;2023-05-10T04:53:34;12.20;;;6.78;;
80381;SDS011;69692;55.820;37.490;2023-05-10T04:56:00;12.98;;;6.80;;
80381;SDS011;69692;55.820;37.490;2023-05-10T04:58:26;15.77;;;7.30;;
80381;SDS011;69692;55.820;37.490;2023-05-10T05:00:51;11.48;;;6.03;;
80381;SDS011;69692;55.820;37.490;2023-05-10T05:03:17;11.32;;;7.22;;
80381;SDS011;69692;55.820;37.490;2023-05-10T05:05:43;14.70;;;6.80;;
80381;SDS011;69692;55.820;37.490;2023-05-10T05:08:10;12.05;;;7.93;;
80381;SDS011;69692;55.820;37.490;2023-05-10T05:10:35;15.70;;;6.90;;
80381;SDS011;69692;55.820;37.490;2023-05-10T05:13:01;13.88;;;6.35;;
80381;SDS011;69692;55.820;37.490;2023-05-10T05:15:27;10.63;;;6.60;;
80381;SDS011;69692;55.820;37.490;2023-05-10T05:17:53;15.85;;;7.30;;
80381;SDS011;69692;55.820;37.490;2023-05-10T05:20:18;18.55;;;6.47;;
80381;SDS011;69692;55.820;37.490;2023-05-10T05:22:44;13.65;;;6.03;;
80381;SDS011;69692;55.820;37.490;2023-05-10T05:25:10;11.32;;;6.80;;
80381;SDS011;69692;55.820;37.490;2023-05-10T05:27:36;10.05;;;7.50;;
80381;SDS011;69692;55.820;37.490;2023-05-10T05:30:02;11.23;;;6.00;;
80381;SDS011;69692;55.820;37.490;2023-05-10T05:32:29;10.20;;;5.55;;
80381;SDS011;69692;55.820;37.490;2023-05-10T05:34:55;10.82;;;5.32;;
80381;SDS011;69692;55.820;37.490;2023-05-10T05:37:21;11.55;;;5.63;;
80381;SDS011;69692;55.820;37.490;2023-05-10T05:39:47;10.18;;;5.32;;
80381;SDS011;69692;55.820;37.490;2023-05-10T05:42:14;8.75;;;4.78;;
80381;SDS011;69692;55.820;37.490;2023-05-10T05:44:41;10.35;;;5.78;;
80381;SDS011;69692;55.820;37.490;2023-05-10T05:47:07;12.00;;;4.85;;
80381;SDS011;69692;55.820;37.490;2023-05-10T05:49:33;9.73;;;5.22;;
80381;SDS011;69692;55.820;37.490;2023-05-10T05:52:02;11.18;;;6.10;;
80381;SDS011;69692;55.820;37.490;2023-05-10T05:54:29;10.27;;;5.60;;
80381;SDS011;69692;55.820;37.490;2023-05-10T05:56:56;12.68;;;5.28;;
80381;SDS011;69692;55.820;37.490;2023-05-10T05:59:25;6.78;;;4.57;;
80381;SDS011;69692;55.820;37.490;2023-05-10T06:01:51;15.40;;;5.78;;
80381;SDS011;69692;55.820;37.490;2023-05-10T06:04:17;9.98;;;4.55;;
80381;SDS011;69692;55.820;37.490;2023-05-10T06:06:43;11.05;;;5.18;;
80381;SDS011;69692;55.820;37.490;2023-05-10T06:09:09;11.45;;;4.60;;
80381;SDS011;69692;55.820;37.490;2023-05-10T06:11:35;14.68;;;5.85;;
80381;SDS011;69692;55.820;37.490;2023-05-10T06:14:02;11.55;;;5.60;;
80381;SDS011;69692;55.820;37.490;2023-05-10T06:16:29;15.38;;;6.18;;
80381;SDS011;69692;55.820;37.490;2023-05-10T06:18:56;12.30;;;4.80;;
80381;SDS011;69692;55.820;37.490;2023-05-10T06:21:22;11.75;;;5.07;;
80381;SDS011;69692;55.820;37.490;2023-05-10T06:23:47;9.23;;;4.30;;
80381;SDS011;69692;55.820;37.490;2023-05-10T06:26:13;8.13;;;4.30;;
80381;SDS011;69692;55.820;37.490;2023-05-10T06:28:39;8.50;;;4.63;;
80381;SDS011;69692;55.820;37.490;2023-05-10T06:31:05;9.13;;;4.70;;
80381;SDS011;69692;55.820;37.490;2023-05-10T06:33:32;9.30;;;4.65;;
80381;SDS011;69692;55.820;37.490;2023-05-10T06:35:58;11.85;;;4.80;;
80381;SDS011;69692;55.820;37.490;2023-05-10T06:38:23;11.18;;;4.53;;
80381;SDS011;69692;55.820;37.490;2023-05-10T06:40:49;8.95;;;4.32;;
80381;SDS011;69692;55.820;37.490;2023-05-10T06:43:15;13.43;;;5.03;;
80381;SDS011;69692;55.820;37.490;2023-05-10T06:45:40;9.32;;;4.18;;
80381;SDS011;69692;55.820;37.490;2023-05-10T06:48:06;11.15;;;4.55;;
80381;SDS011;69692;55.820;37.490;2023-05-10T06:50:32;10.27;;;4.60;;
80381;SDS011;69692;55.820;37.490;2023-05-10T06:52:58;7.10;;;3.85;;
80381;SDS011;69692;55.820;37.490;2023-05-10T06:55:25;10.60;;;4.07;;
80381;SDS011;69692;55.820;37.490;2023-05-10T06:57:50;7.70;;;4.28;;
80381;SDS011;69692;55.820;37.490;2023-05-10T07:00:17;6.63;;;3.33;;
80381;SDS011;69692;55.820;37.490;2023-05-10T07:02:43;8.82;;;3.90;;
80381;SDS011;69692;55.820;37.490;2023-05-10T07:05:09;9.52;;;4.13;;
80381;SDS011;69692;55.820;37.490;2023-05-10T07:07:35;9.00;;;3.35;;
80381;SDS011;69692;55.820;37.490;2023-05-10T07:10:01;10.93;;;4.07;;
80381;SDS011;69692;55.820;37.490;2023-05-10T07:12:29;8.27;;;3.95;;
80381;SDS011;69692;55.820;37.490;2023-05-10T07:14:55;8.00;;;4.53;;
80381;SDS011;69692;55.820;37.490;2023-05-10T07:17:20;8.75;;;3.15;;
80381;SDS011;69692;55.820;37.490;2023-05-10T07:19:46;10.88;;;5.10;;
80381;SDS011;69692;55.820;37.490;2023-05-10T07:22:12;8.98;;;3.50;;
80381;SDS011;69692;55.820;37.490;2023-05-10T07:24:38;9.10;;;3.58;;
80381;SDS011;69692;55.820;37.490;2023-05-10T07:27:03;8.68;;;2.85;;
80381;SDS011;69692;55.820;37.490;2023-05-10T07:29:29;13.68;;;4.43;;
80381;SDS011;69692;55.820;37.490;2023-05-10T07:31:55;10.70;;;3.17;;
80381;SDS011;69692;55.820;37.490;2023-05-10T07:34:21;12.57;;;3.75;;
80381;SDS011;69692;55.820;37.490;2023-05-10T07:36:47;7.78;;;2.75;;
80381;SDS011;69692;55.820;37.490;2023-05-10T07:39:13;10.32;;;3.00;;
80381;SDS011;69692;55.820;37.490;2023-05-10T07:41:38;7.32;;;3.08;;
80381;SDS011;69692;55.820;37.490;2023-05-10T07:44:04;7.55;;;3.75;;
80381;SDS011;69692;55.820;37.490;2023-05-10T07:46:31;8.07;;;3.70;;
80381;SDS011;69692;55.820;37.490;2023-05-10T07:48:56;9.35;;;3.67;;
80381;SDS011;69692;55.820;37.490;2023-05-10T07:51:22;5.10;;;3.30;;
80381;SDS011;69692;55.820;37.490;2023-05-10T07:53:48;7.85;;;3.22;;
80381;SDS011;69692;55.820;37.490;2023-05-10T07:58:47;11.38;;;2.97;;
80381;SDS011;69692;55.820;37.490;2023-05-10T08:01:13;9.57;;;4.38;;
80381;SDS011;69692;55.820;37.490;2023-05-10T08:03:38;8.23;;;3.95;;
80381;SDS011;69692;55.820;37.490;2023-05-10T08:06:04;7.38;;;3.25;;
80381;SDS011;69692;55.820;37.490;2023-05-10T08:08:31;8.30;;;4.03;;
80381;SDS011;69692;55.820;37.490;2023-05-10T08:10:56;11.27;;;3.50;;
80381;SDS011;69692;55.820;37.490;2023-05-10T08:13:22;6.13;;;3.08;;
80381;SDS011;69692;55.820;37.490;2023-05-10T08:15:48;6.05;;;2.58;;
80381;SDS011;69692;55.820;37.490;2023-05-10T08:18:13;5.53;;;2.45;;
80381;SDS011;69692;55.820;37.490;2023-05-10T08:20:39;4.63;;;2.00;;
80381;SDS011;69692;55.820;37.490;2023-05-10T08:23:05;7.45;;;2.17;;
80381;SDS011;69692;55.820;37.490;2023-05-10T08:25:31;7.05;;;2.63;;
80381;SDS011;69692;55.820;37.490;2023-05-10T08:27:57;4.45;;;1.95;;
80381;SDS011;69692;55.820;37.490;2023-05-10T08:30:23;3.83;;;1.95;;
80381;SDS011;69692;55.820;37.490;2023-05-10T08:32:48;3.78;;;2.42;;
80381;SDS011;69692;55.820;37.490;2023-05-10T08:35:15;7.75;;;2.42;;
80381;SDS011;69692;55.820;37.490;2023-05-10T08:37:41;3.85;;;2.45;;
80381;SDS011;69692;55.820;37.490;2023-05-10T08:40:07;5.82;;;2.20;;
80381;SDS011;69692;55.820;37.490;2023-05-10T08:42:35;7.18;;;2.40;;
80381;SDS011;69692;55.820;37.490;2023-05-10T08:45:05;4.97;;;2.95;;
80381;SDS011;69692;55.820;37.490;2023-05-10T08:47:33;5.90;;;2.30;;
80381;SDS011;69692;55.820;37.490;2023-05-10T08:50:02;5.57;;;2.85;;
80381;SDS011;69692;55.820;37.490;2023-05-10T08:52:29;5.45;;;2.50;;
80381;SDS011;69692;55.820;37.490;2023-05-10T08:54:58;3.92;;;2.38;;
80381;SDS011;69692;55.820;37.490;2023-05-10T08:57:24;4.78;;;2.08;;
80381;SDS011;69692;55.820;37.490;2023-05-10T08:59:50;5.10;;;2.70;;
80381;SDS011;69692;55.820;37.490;2023-05-10T09:02:16;5.25;;;2.60;;
80381;SDS011;69692;55.820;37.490;2023-05-10T09:04:43;3.63;;;2.75;;
80381;SDS011;69692;55.820;37.490;2023-05-10T09:07:09;3.28;;;2.13;;
80381;SDS011;69692;55.820;37.490;2023-05-10T09:09:36;4.82;;;2.33;;
80381;SDS011;69692;55.820;37.490;2023-05-10T09:12:02;3.42;;;2.53;;
80381;SDS011;69692;55.820;37.490;2023-05-10T09:14:28;6.82;;;2.15;;
80381;SDS011;69692;55.820;37.490;2023-05-10T09:16:54;5.30;;;3.15;;
80381;SDS011;69692;55.820;37.490;2023-05-10T09:19:21;3.97;;;2.53;;
80381;SDS011;69692;55.820;37.490;2023-05-10T09:21:47;4.72;;;1.90;;
80381;SDS011;69692;55.820;37.490;2023-05-10T09:24:14;8.27;;;2.40;;
80381;SDS011;69692;55.820;37.490;2023-05-10T09:26:46;6.38;;;2.78;;
80381;SDS011;69692;55.820;37.490;2023-05-10T09:29:16;4.75;;;2.00;;
80381;SDS011;69692;55.820;37.490;2023-05-10T09:31:49;4.32;;;2.40;;
80381;SDS011;69692;55.820;37.490;2023-05-10T09:34:17;4.22;;;2.35;;
80381;SDS011;69692;55.820;37.490;2023-05-10T09:36:54;6.70;;;3.45;;
80381;SDS011;69692;55.820;37.490;2023-05-10T09:39:35;7.05;;;3.15;;
80381;SDS011;69692;55.820;37.490;2023-05-10T09:42:03;3.38;;;3.08;;
80381;SDS011;69692;55.820;37.490;2023-05-10T09:44:31;3.63;;;1.98;;
80381;SDS011;69692;55.820;37.490;2023-05-10T09:46:58;4.10;;;2.63;;
80381;SDS011;69692;55.820;37.490;2023-05-10T09:49:24;8.05;;;2.70;;
80381;SDS011;69692;55.820;37.490;2023-05-10T09:52:23;6.93;;;2.75;;
80381;SDS011;69692;55.820;37.490;2023-05-10T09:54:45;6.05;;;2.55;;
80381;SDS011;69692;55.820;37.490;2023-05-10T09:59:48;9.00;;;3.55;;
80381;SDS011;69692;55.820;37.490;2023-05-10T10:02:14;5.70;;;2.30;;
80381;SDS011;69692;55.820;37.490;2023-05-10T10:04:40;6.10;;;2.38;;
80381;SDS011;69692;55.820;37.490;2023-05-10T10:07:06;6.38;;;2.22;;
80381;SDS011;69692;55.820;37.490;2023-05-10T10:09:32;4.63;;;2.53;;
80381;SDS011;69692;55.820;37.490;2023-05-10T10:12:00;6.72;;;2.40;;
80381;SDS011;69692;55.820;37.490;2023-05-10T10:14:27;4.22;;;2.78;;
80381;SDS011;69692;55.820;37.490;2023-05-10T10:16:57;6.07;;;2.40;;
80381;SDS011;69692;55.820;37.490;2023-05-10T10:19:26;6.05;;;2.20;;
80381;SDS011;69692;55.820;37.490;2023-05-10T10:21:52;4.15;;;2.05;;
80381;SDS011;69692;55.820;37.490;2023-05-10T10:24:17;5.68;;;2.25;;
80381;SDS011;69692;55.820;37.490;2023-05-10T10:26:43;3.30;;;1.92;;
80381;SDS011;69692;55.820;37.490;2023-05-10T10:31:46;6.40;;;4.63;;
80381;SDS011;69692;55.820;37.490;2023-05-10T10:36:56;7.22;;;3.90;;
80381;SDS011;69692;55.820;37.490;2023-05-10T10:39:26;9.98;;;4.95;;
80381;SDS011;69692;55.820;37.490;2023-05-10T11:05:39;3.78;;;2.20;;
80381;SDS011;69692;55.820;37.490;2023-05-10T11:08:28;5.07;;;2.85;;
80381;SDS011;69692;55.820;37.490;2023-05-10T11:13:43;8.57;;;4.78;;
80381;SDS011;69692;55.820;37.490;2023-05-10T11:18:37;9.63;;;3.15;;
80381;SDS011;69692;55.820;37.490;2023-05-10T11:21:03;3.45;;;2.35;;
80381;SDS011;69692;55.820;37.490;2023-05-10T11:26:06;4.75;;;2.20;;
80381;SDS011;69692;55.820;37.490;2023-05-10T11:28:55;10.10;;;2.65;;
80381;SDS011;69692;55.820;37.490;2023-05-10T11:31:21;18.00;;;6.40;;
80381;SDS011;69692;55.820;37.490;2023-05-10T11:33:51;3.70;;;2.70;;
80381;SDS011;69692;55.820;37.490;2023-05-10T11:36:19;5.68;;;2.05;;
80381;SDS011;69692;55.820;37.490;2023-05-10T11:38:46;4.03;;;1.95;;
80381;SDS011;69692;55.820;37.490;2023-05-10T11:41:13;4.85;;;2.03;;
80381;SDS011;69692;55.820;37.490;2023-05-10T11:43:40;4.80;;;1.67;;
80381;SDS011;69692;55.820;37.490;2023-05-10T11:46:07;5.57;;;2.53;;
80381;SDS011;69692;55.820;37.490;2023-05-10T11:48:34;4.90;;;2.58;;
80381;SDS011;69692;55.820;37.490;2023-05-10T11:51:01;4.70;;;2.42;;
80381;SDS011;69692;55.820;37.490;2023-05-10T11:53:27;5.35;;;2.30;;
80381;SDS011;69692;55.820;37.490;2023-05-10T11:55:55;13.38;;;3.15;;
80381;SDS011;69692;55.820;37.490;2023-05-10T11:58:23;10.43;;;2.28;;
80381;SDS011;69692;55.820;37.490;2023-05-10T12:00:49;4.25;;;2.33;;
80381;SDS011;69692;55.820;37.490;2023-05-10T12:03:15;3.58;;;2.20;;
80381;SDS011;69692;55.820;37.490;2023-05-10T12:05:41;6.22;;;2.13;;
80381;SDS011;69692;55.820;37.490;2023-05-10T12:08:10;7.60;;;3.22;;
80381;SDS011;69692;55.820;37.490;2023-05-10T12:10:40;3.92;;;2.22;;
80381;SDS011;69692;55.820;37.490;2023-05-10T12:13:13;6.45;;;2.72;;
80381;SDS011;69692;55.820;37.490;2023-05-10T12:15:40;3.42;;;1.83;;
80381;SDS011;69692;55.820;37.490;2023-05-10T12:18:14;3.10;;;2.00;;
80381;SDS011;69692;55.820;37.490;2023-05-10T12:20:40;3.90;;;2.40;;
80381;SDS011;69692;55.820;37.490;2023-05-10T12:23:08;3.80;;;2.65;;
80381;SDS011;69692;55.820;37.490;2023-05-10T12:25:36;4.88;;;1.88;;
80381;SDS011;69692;55.820;37.490;2023-05-10T12:28:03;4.78;;;2.53;;
80381;SDS011;69692;55.820;37.490;2023-05-10T12:30:31;7.63;;;2.33;;
80381;SDS011;69692;55.820;37.490;2023-05-10T12:33:02;4.18;;;2.17;;
80381;SDS011;69692;55.820;37.490;2023-05-10T12:40:58;4.13;;;1.92;;
80381;SDS011;69692;55.820;37.490;2023-05-10T12:45:54;5.93;;;1.92;;
80381;SDS011;69692;55.820;37.490;2023-05-10T12:48:19;9.38;;;4.45;;
80381;SDS011;69692;55.820;37.490;2023-05-10T12:50:46;6.57;;;2.28;;
80381;SDS011;69692;55.820;37.490;2023-05-10T12:53:12;9.25;;;3.22;;
80381;SDS011;69692;55.820;37.490;2023-05-10T12:55:41;6.72;;;1.80;;
80381;SDS011;69692;55.820;37.490;2023-05-10T12:58:07;4.72;;;1.98;;
80381;SDS011;69692;55.820;37.490;2023-05-10T13:00:32;4.35;;;2.15;;
80381;SDS011;69692;55.820;37.490;2023-05-10T13:02:58;9.27;;;2.38;;
80381;SDS011;69692;55.820;37.490;2023-05-10T13:05:24;6.10;;;2.28;;
80381;SDS011;69692;55.820;37.490;2023-05-10T13:07:50;7.07;;;3.33;;
80381;SDS011;69692;55.820;37.490;2023-05-10T13:10:15;11.85;;;3.13;;
80381;SDS011;69692;55.820;37.490;2023-05-10T13:12:41;7.28;;;2.47;;
80381;SDS011;69692;55.820;37.490;2023-05-10T13:15:07;3.25;;;2.00;;
80381;SDS011;69692;55.820;37.490;2023-05-10T13:17:33;4.13;;;2.22;;
80381;SDS011;69692;55.820;37.490;2023-05-10T13:19:59;3.78;;;2.03;;
80381;SDS011;69692;55.820;37.490;2023-05-10T13:22:24;5.60;;;2.08;;
80381;SDS011;69692;55.820;37.490;2023-05-10T13:24:50;12.10;;;2.53;;
80381;SDS011;69692;55.820;37.490;2023-05-10T13:27:16;3.53;;;2.05;;
80381;SDS011;69692;55.820;37.490;2023-05-10T13:29:42;10.50;;;2.42;;
80381;SDS011;69692;55.820;37.490;2023-05-10T13:32:07;6.45;;;2.75;;
80381;SDS011;69692;55.820;37.490;2023-05-10T13:34:33;9.35;;;2.95;;
80381;SDS011;69692;55.820;37.490;2023-05-10T13:37:01;10.25;;;2.75;;
80381;SDS011;69692;55.820;37.490;2023-05-10T13:39:26;7.82;;;3.78;;
80381;SDS011;69692;55.820;37.490;2023-05-10T13:41:52;7.38;;;2.92;;
80381;SDS011;69692;55.820;37.490;2023-05-10T13:44:19;7.97;;;2.28;;
80381;SDS011;69692;55.820;37.490;2023-05-10T13:46:45;8.40;;;2.33;;
80381;SDS011;69692;55.820;37.490;2023-05-10T13:49:11;4.20;;;1.80;;
80381;SDS011;69692;55.820;37.490;2023-05-10T13:51:37;3.65;;;2.13;;
80381;SDS011;69692;55.820;37.490;2023-05-10T13:54:03;3.60;;;1.75;;
80381;SDS011;69692;55.820;37.490;2023-05-10T13:56:29;4.47;;;2.33;;
80381;SDS011;69692;55.820;37.490;2023-05-10T13:58:56;5.70;;;2.00;;
80381;SDS011;69692;55.820;37.490;2023-05-10T14:01:23;5.18;;;2.42;;
80381;SDS011;69692;55.820;37.490;2023-05-10T14:03:49;22.40;;;4.38;;
80381;SDS011;69692;55.820;37.490;2023-05-10T14:06:14;11.55;;;2.78;;
80381;SDS011;69692;55.820;37.490;2023-05-10T14:08:40;5.45;;;2.35;;
80381;SDS011;69692;55.820;37.490;2023-05-10T14:11:07;6.22;;;2.58;;
80381;SDS011;69692;55.820;37.490;2023-05-10T14:13:32;9.90;;;3.30;;
80381;SDS011;69692;55.820;37.490;2023-05-10T14:15:58;11.70;;;3.05;;
80381;SDS011;69692;55.820;37.490;2023-05-10T14:18:28;7.88;;;2.53;;
80381;SDS011;69692;55.820;37.490;2023-05-10T14:20:54;14.07;;;3.22;;
80381;SDS011;69692;55.820;37.490;2023-05-10T14:23:21;10.02;;;2.75;;
80381;SDS011;69692;55.820;37.490;2023-05-10T14:25:50;19.58;;;4.60;;
80381;SDS011;69692;55.820;37.490;2023-05-10T14:28:16;24.75;;;4.32;;
80381;SDS011;69692;55.820;37.490;2023-05-10T14:30:43;10.30;;;5.28;;
80381;SDS011;69692;55.820;37.490;2023-05-10T14:33:09;14.52;;;3.65;;
80381;SDS011;69692;55.820;37.490;2023-05-10T14:35:35;6.82;;;2.90;;
80381;SDS011;69692;55.820;37.490;2023-05-10T14:38:02;7.03;;;3.15;;
80381;SDS011;69692;55.820;37.490;2023-05-10T14:40:29;6.78;;;2.95;;
80381;SDS011;69692;55.820;37.490;2023-05-10T14:42:55;4.15;;;2.75;;
80381;SDS011;69692;55.820;37.490;2023-05-10T14:45:21;5.15;;;2.28;;
80381;SDS011;69692;55.820;37.490;2023-05-10T14:47:48;8.25;;;2.67;;
80381;SDS011;69692;55.820;37.490;2023-05-10T14:50:15;11.80;;;2.70;;
80381;SDS011;69692;55.820;37.490;2023-05-10T14:52:42;9.25;;;2.63;;
80381;SDS011;69692;55.820;37.490;2023-05-10T14:55:08;5.38;;;2.38;;
80381;SDS011;69692;55.820;37.490;2023-05-10T14:57:34;5.65;;;2.30;;
80381;SDS011;69692;55.820;37.490;2023-05-10T14:59:59;13.20;;;3.50;;
80381;SDS011;69692;55.820;37.490;2023-05-10T15:02:25;15.35;;;3.80;;
80381;SDS011;69692;55.820;37.490;2023-05-10T15:04:51;5.05;;;2.35;;
80381;SDS011;69692;55.820;37.490;2023-05-10T15:07:17;4.50;;;1.88;;
80381;SDS011;69692;55.820;37.490;2023-05-10T15:09:44;3.40;;;2.20;;
80381;SDS011;69692;55.820;37.490;2023-05-10T15:12:10;5.35;;;2.20;;
80381;SDS011;69692;55.820;37.490;2023-05-10T15:14:36;4.60;;;2.42;;
80381;SDS011;69692;55.820;37.490;2023-05-10T15:17:02;7.95;;;2.25;;
80381;SDS011;69692;55.820;37.490;2023-05-10T15:19:28;3.95;;;2.13;;
80381;SDS011;69692;55.820;37.490;2023-05-10T15:21:54;6.40;;;2.25;;
80381;SDS011;69692;55.820;37.490;2023-05-10T15:24:21;4.10;;;2.15;;
80381;SDS011;69692;55.820;37.490;2023-05-10T15:26:47;3.60;;;1.80;;
80381;SDS011;69692;55.820;37.490;2023-05-10T15:29:13;3.80;;;2.10;;
80381;SDS011;69692;55.820;37.490;2023-05-10T15:31:47;5.85;;;2.75;;
80381;SDS011;69692;55.820;37.490;2023-05-10T15:34:16;7.22;;;2.38;;
80381;SDS011;69692;55.820;37.490;2023-05-10T15:36:43;7.75;;;2.45;;